createdAt,value
2019-02-02T00:06:35.580Z,41.17
2019-02-02T00:11:57.779Z,41.80
2019-02-02T00:17:19.955Z,39.60
2019-02-02T00:22:42.145Z,42.00
2019-02-02T00:28:25.716Z,35.50
2019-02-02T00:33:47.884Z,33.50
2019-02-02T00:39:10.159Z,44.13
2019-02-02T00:44:32.342Z,47.70
2019-02-02T00:49:54.548Z,40.87
2019-02-02T00:55:16.955Z,37.17
2019-02-02T01:00:39.129Z,44.27
2019-02-02T01:06:01.319Z,34.50
2019-02-02T01:11:23.498Z,42.80
2019-02-02T01:16:39.010Z,35.67
2019-02-02T01:22:01.258Z,37.90
2019-02-02T01:27:23.441Z,38.87
2019-02-02T01:32:45.628Z,41.00
2019-02-02T01:38:07.958Z,54.07
2019-02-02T01:43:30.139Z,40.83
2019-02-02T01:48:52.330Z,42.07
2019-02-02T01:54:14.497Z,41.90
2019-02-02T01:59:36.697Z,44.77
2019-02-02T02:04:39.773Z,38.83
2019-02-02T02:10:02.754Z,36.87
2019-02-02T02:15:18.782Z,48.47
2019-02-02T02:20:41.228Z,41.10
2019-02-02T02:26:03.381Z,43.20
2019-02-02T02:31:25.563Z,50.87
2019-02-02T02:36:47.766Z,39.97
2019-02-02T02:42:09.940Z,39.63
2019-02-02T02:47:12.605Z,50.17
2019-02-02T02:52:34.795Z,37.90
2019-02-02T02:57:56.976Z,40.40
2019-02-02T03:02:59.645Z,39.67
2019-02-02T03:08:21.819Z,45.30
2019-02-02T03:13:36.699Z,49.37
2019-02-02T03:18:58.885Z,38.43
2019-02-02T03:24:21.030Z,45.63
2019-02-02T03:29:43.226Z,44.43
2019-02-02T03:35:14.440Z,42.90
2019-02-02T03:40:36.623Z,51.13
2019-02-02T03:45:58.843Z,41.17
2019-02-02T03:51:21.069Z,40.50
2019-02-02T03:56:43.246Z,35.17
2019-02-02T04:02:05.414Z,49.80
2019-02-02T04:07:27.585Z,42.00
2019-02-02T04:12:43.136Z,45.77
2019-02-02T04:17:45.944Z,39.23
2019-02-02T04:23:08.123Z,41.73
2019-02-02T04:28:10.858Z,36.83
2019-02-02T04:33:33.048Z,51.50
2019-02-02T04:38:55.243Z,42.73
2019-02-02T04:44:17.390Z,52.37
2019-02-02T04:49:39.553Z,38.50
2019-02-02T04:55:01.733Z,35.53
2019-02-02T05:00:24.929Z,44.20
2019-02-02T05:05:47.225Z,42.80
2019-02-02T05:11:09.403Z,43.30
2019-02-02T05:16:24.741Z,42.40
2019-02-02T05:21:46.937Z,44.60
2019-02-02T05:27:09.388Z,49.67
2019-02-02T05:32:31.614Z,45.43
2019-02-02T05:37:54.029Z,36.07
2019-02-02T05:43:16.262Z,41.93
2019-02-02T05:48:19.040Z,42.47
2019-02-02T05:53:41.305Z,40.10
2019-02-02T05:59:03.534Z,42.87
2019-02-02T06:04:26.599Z,39.70
2019-02-02T06:09:49.219Z,35.40
2019-02-02T06:14:51.902Z,52.17
2019-02-02T06:19:55.311Z,38.93
2019-02-02T06:25:17.572Z,37.57
2019-02-02T06:30:39.720Z,38.10
2019-02-02T06:35:44.664Z,43.63
2019-02-02T06:40:47.434Z,40.73
2019-02-02T06:45:50.092Z,37.40
2019-02-02T06:50:52.769Z,45.57
2019-02-02T06:55:55.440Z,43.47
2019-02-02T07:00:58.138Z,48.37
2019-02-02T07:06:20.322Z,47.67
2019-02-02T07:11:42.504Z,47.57
2019-02-02T07:16:57.813Z,42.57
2019-02-02T07:22:19.982Z,45.77
2019-02-02T07:27:42.164Z,41.90
2019-02-02T07:33:04.336Z,41.00
2019-02-02T07:38:26.505Z,56.20
2019-02-02T07:43:48.702Z,46.37
2019-02-02T07:49:10.892Z,45.83
2019-02-02T07:54:33.308Z,47.00
2019-02-02T07:59:56.741Z,56.40
2019-02-02T08:05:18.980Z,50.63
2019-02-02T08:10:41.207Z,50.23
2019-02-02T08:15:56.806Z,48.10
2019-02-02T08:21:00.105Z,55.50
2019-02-02T08:26:22.280Z,52.90
2019-02-02T08:31:44.834Z,72.33
2019-02-02T08:42:58.593Z,59.57
2019-02-02T08:48:21.451Z,52.33
2019-02-02T08:53:44.340Z,52.37
2019-02-02T08:59:08.161Z,43.97
2019-02-02T09:04:30.322Z,42.27
2019-02-02T09:09:52.651Z,51.13
2019-02-02T09:15:09.434Z,45.40
2019-02-02T09:20:32.671Z,50.03
2019-02-02T09:25:55.240Z,49.87
2019-02-02T09:31:18.257Z,50.43
2019-02-02T09:36:41.996Z,51.77
2019-02-02T09:41:45.177Z,48.93
2019-02-02T09:47:20.209Z,49.23
2019-02-02T09:52:43.132Z,57.40
2019-02-02T09:58:09.060Z,54.10
2019-02-02T10:03:11.969Z,51.97
2019-02-02T10:08:15.263Z,43.93
2019-02-02T10:13:31.250Z,54.87
2019-02-02T10:18:54.600Z,52.83
2019-02-02T10:24:16.858Z,52.40
2019-02-02T10:29:39.026Z,57.73
2019-02-02T10:34:41.712Z,59.10
2019-02-02T10:40:05.304Z,65.97
2019-02-02T10:45:27.497Z,89.47
2019-02-02T10:50:49.665Z,72.27
2019-02-02T10:56:11.829Z,62.00
2019-02-02T11:01:34.071Z,67.27
2019-02-02T11:06:56.338Z,58.20
2019-02-02T11:11:59.158Z,52.53
2019-02-02T11:17:02.117Z,59.50
2019-02-02T11:22:04.867Z,63.93
2019-02-02T11:27:07.535Z,57.07
2019-02-02T11:32:10.336Z,58.20
2019-02-02T11:37:13.343Z,70.20
2019-02-02T11:42:16.008Z,66.90
2019-02-02T11:47:18.672Z,58.90
2019-02-02T11:52:23.378Z,66.77
2019-02-02T11:57:26.214Z,69.47
2019-02-02T12:02:28.884Z,66.33
2019-02-02T12:07:31.552Z,72.97
2019-02-02T12:12:34.408Z,68.07
2019-02-02T12:17:37.068Z,91.63
2019-02-02T12:22:39.747Z,176.63
2019-02-02T12:27:42.776Z,185.13
2019-02-02T12:32:45.658Z,143.33
2019-02-02T12:37:48.341Z,82.73
2019-02-02T12:42:51.219Z,83.47
2019-02-02T12:47:54.320Z,97.77
2019-02-02T12:52:59.702Z,75.83
2019-02-02T12:58:04.107Z,67.27
2019-02-02T13:03:07.519Z,72.80
2019-02-02T13:08:10.282Z,70.43
2019-02-02T13:13:14.516Z,75.93
2019-02-02T13:18:19.018Z,64.30
2019-02-02T13:23:41.168Z,69.20
2019-02-02T13:29:03.541Z,70.20
2019-02-02T13:34:25.734Z,63.63
2019-02-02T13:39:47.923Z,62.70
2019-02-02T13:45:10.635Z,67.27
2019-02-02T13:50:32.810Z,69.60
2019-02-02T13:55:35.473Z,63.10
2019-02-02T14:00:38.151Z,72.13
2019-02-02T14:05:40.826Z,73.17
2019-02-02T14:10:43.501Z,73.83
2019-02-02T14:15:46.172Z,71.77
2019-02-02T14:20:48.833Z,68.53
2019-02-02T14:25:51.484Z,75.13
2019-02-02T14:31:13.648Z,87.57
2019-02-02T14:36:35.832Z,67.80
2019-02-02T14:41:38.523Z,83.77
2019-02-02T14:46:41.181Z,82.13
2019-02-02T14:52:03.474Z,84.07
2019-02-02T14:57:25.660Z,84.70
2019-02-02T15:02:47.874Z,73.43
2019-02-02T15:08:10.031Z,80.30
2019-02-02T15:13:25.807Z,109.13
2019-02-02T15:18:48.016Z,92.17
2019-02-02T15:24:10.164Z,80.60
2019-02-02T15:29:32.333Z,80.53
2019-02-02T15:34:54.494Z,88.40
2019-02-02T15:40:16.908Z,90.83
2019-02-02T15:45:39.081Z,80.93
2019-02-02T15:51:01.243Z,100.67
2019-02-02T15:56:23.407Z,97.67
2019-02-02T16:01:45.591Z,90.40
2019-02-02T16:07:07.762Z,93.40
2019-02-02T16:12:29.967Z,97.33
2019-02-02T16:17:52.134Z,99.30
2019-02-02T16:23:14.298Z,91.13
2019-02-02T16:28:16.966Z,97.30
2019-02-02T16:33:39.152Z,103.43
2019-02-02T16:39:01.328Z,89.90
2019-02-02T16:44:23.498Z,99.83
2019-02-02T16:49:45.665Z,102.17
2019-02-02T16:54:48.326Z,93.33
2019-02-02T17:00:34.105Z,92.37
2019-02-02T17:05:56.295Z,102.40
2019-02-02T17:11:18.474Z,98.87
2019-02-02T17:16:21.185Z,102.87
2019-02-02T17:21:23.856Z,88.73
2019-02-02T17:26:26.675Z,106.63
2019-02-02T17:31:29.425Z,107.27
2019-02-02T17:36:32.102Z,105.37
2019-02-02T17:41:34.768Z,107.43
2019-02-02T17:46:56.973Z,105.87
2019-02-02T17:51:59.642Z,106.47
2019-02-02T17:57:02.324Z,96.40
2019-02-02T18:02:24.503Z,95.03
2019-02-02T18:07:46.677Z,85.87
2019-02-02T18:13:02.089Z,88.40
2019-02-02T18:18:24.237Z,102.00
2019-02-02T18:23:46.413Z,94.20
2019-02-02T18:29:08.602Z,83.77
2019-02-02T18:34:30.773Z,99.93
2019-02-02T18:39:52.937Z,98.57
2019-02-02T18:45:18.051Z,106.60
2019-02-02T18:50:40.227Z,101.83
2019-02-02T18:56:06.963Z,97.53
2019-02-02T19:01:29.148Z,105.93
2019-02-02T19:06:51.318Z,92.33
2019-02-02T19:12:13.501Z,99.37
2019-02-02T19:17:16.185Z,88.10
2019-02-02T19:22:18.855Z,99.10
2019-02-02T19:27:21.614Z,91.13
2019-02-02T19:32:24.294Z,110.87
2019-02-02T19:37:26.975Z,97.40
2019-02-02T19:42:31.416Z,106.27
2019-02-02T19:47:34.667Z,110.23
2019-02-02T19:52:40.195Z,91.50
2019-02-02T19:57:42.153Z,120.53
2019-02-02T20:02:44.863Z,102.10
2019-02-02T20:07:47.659Z,116.80
2019-02-02T20:12:50.397Z,115.00
2019-02-02T20:17:53.074Z,104.07
2019-02-02T20:22:55.941Z,116.60
2019-02-02T20:28:18.122Z,120.87
2019-02-02T20:33:40.443Z,127.07
2019-02-02T20:38:43.089Z,107.70
2019-02-02T20:44:05.389Z,109.13
2019-02-02T20:49:27.557Z,110.43
2019-02-02T20:54:30.221Z,106.67
2019-02-02T20:59:52.391Z,122.43
2019-02-02T21:05:14.880Z,119.43
2019-02-02T21:10:37.064Z,111.23
2019-02-02T21:15:52.846Z,124.00
2019-02-02T21:21:15.039Z,129.00
2019-02-02T21:26:17.716Z,130.27
2019-02-02T21:31:39.907Z,121.53
2019-02-02T21:37:02.076Z,113.83
2019-02-02T21:42:24.242Z,112.57
2019-02-02T21:47:46.483Z,126.87
2019-02-02T21:53:08.652Z,104.60
2019-02-02T21:58:30.822Z,112.80
2019-02-02T22:03:53.010Z,115.43
2019-02-02T22:08:55.887Z,133.07
2019-02-02T22:14:11.404Z,122.67
2019-02-02T22:19:33.578Z,114.03
2019-02-02T22:24:57.646Z,128.53
2019-02-02T22:30:24.904Z,114.33
2019-02-02T22:35:47.095Z,113.23
2019-02-02T22:41:09.273Z,111.53
2019-02-02T22:46:31.843Z,110.53
2019-02-02T22:51:54.038Z,92.43
2019-02-02T22:57:16.229Z,116.73
2019-02-02T23:02:21.403Z,110.57
2019-02-02T23:08:22.568Z,123.87
2019-02-02T23:13:57.882Z,119.43
2019-02-02T23:19:20.061Z,123.03
2019-02-02T23:24:42.234Z,132.70
2019-02-02T23:35:55.245Z,132.17
2019-02-02T23:41:17.428Z,148.30
2019-02-02T23:46:39.583Z,149.53
2019-02-02T23:52:01.749Z,124.33
2019-02-02T23:57:23.930Z,120.77
